Time;durP1;ratioP1;P1;durP2;ratioP2;P2;SDS_P1;SDS_P2;PMS_P1;PMS_P2;Temp;Humidity;BMP_temperature;BMP_pressure;BME280_temperature;BME280_humidity;BME280_pressure;Samples;Min_cycle;Max_cycle;Signal;HPM_P1;HPM_P2
2023/09/10 00:01:58;;;;;;;51.97;11.38;;;;;;;;;;4962909;28;20743;-78
2023/09/10 00:04:26;;;;;;;28.50;6.07;;;;;;;;;;4966873;28;20284;-79
2023/09/10 00:06:53;;;;;;;43.88;9.30;;;;;;;;;;4970018;28;20243;-79
2023/09/10 00:09:20;;;;;;;26.80;5.55;;;;;;;;;;4971906;28;20603;-78
2023/09/10 00:11:46;;;;;;;64.50;15.55;;;;;;;;;;4974782;28;20227;-79
2023/09/10 00:14:13;;;;;;;30.35;6.40;;;;;;;;;;4961822;28;20243;-78
2023/09/10 00:16:40;;;;;;;45.83;10.35;;;;;;;;;;4975873;28;20236;-79
2023/09/10 00:19:06;;;;;;;26.77;7.47;;;;;;;;;;4973889;28;20753;-79
2023/09/10 00:21:33;;;;;;;36.90;7.47;;;;;;;;;;4978039;28;20696;-80
2023/09/10 00:23:59;;;;;;;25.83;5.72;;;;;;;;;;4962772;28;20605;-79
2023/09/10 00:26:26;;;;;;;27.70;5.72;;;;;;;;;;4980273;28;20286;-79
2023/09/10 00:28:53;;;;;;;58.72;13.95;;;;;;;;;;4974148;28;20244;-79
2023/09/10 00:31:20;;;;;;;26.67;5.78;;;;;;;;;;4968620;28;20225;-79
2023/09/10 00:33:46;;;;;;;65.95;16.23;;;;;;;;;;4954335;28;20235;-79
2023/09/10 00:36:13;;;;;;;27.20;7.10;;;;;;;;;;4968470;28;20246;-79
2023/09/10 00:38:39;;;;;;;43.78;9.80;;;;;;;;;;4970989;28;20275;-79
2023/09/10 00:41:07;;;;;;;37.03;8.38;;;;;;;;;;4951350;28;20237;-79
2023/09/10 00:43:34;;;;;;;31.00;6.63;;;;;;;;;;4977496;28;20627;-78
2023/09/10 00:46:02;;;;;;;31.00;7.57;;;;;;;;;;4973835;28;20232;-79
2023/09/10 00:48:28;;;;;;;28.25;6.07;;;;;;;;;;4979409;28;20236;-79
2023/09/10 00:50:55;;;;;;;52.60;12.88;;;;;;;;;;4974952;28;20235;-79
2023/09/10 00:53:22;;;;;;;26.90;7.63;;;;;;;;;;4972410;28;20263;-79
2023/09/10 00:55:49;;;;;;;60.53;17.02;;;;;;;;;;4966454;28;20683;-78
2023/09/10 00:58:17;;;;;;;28.30;9.07;;;;;;;;;;4969022;28;20321;-79
2023/09/10 01:00:44;;;;;;;72.47;17.63;;;;;;;;;;4974557;28;20252;-79
2023/09/10 01:03:11;;;;;;;29.42;7.22;;;;;;;;;;4977890;28;20562;-78
2023/09/10 01:05:37;;;;;;;34.20;8.88;;;;;;;;;;4966147;28;20249;-80
2023/09/10 01:08:04;;;;;;;33.30;7.80;;;;;;;;;;4974786;28;20731;-79
2023/09/10 01:10:53;;;;;;;30.08;7.50;;;;;;;;;;4968802;28;20237;-79
2023/09/10 01:13:46;;;;;;;28.67;7.22;;;;;;;;;;4966586;28;20229;-78
2023/09/10 01:16:16;;;;;;;23.65;5.05;;;;;;;;;;4944597;28;20226;-78
2023/09/10 01:18:46;;;;;;;58.67;12.88;;;;;;;;;;4959065;28;20234;-79
2023/09/10 01:21:22;;;;;;;22.75;5.32;;;;;;;;;;4968005;28;20239;-78
2023/09/10 01:24:02;;;;;;;48.15;11.30;;;;;;;;;;4964668;28;20302;-78
2023/09/10 01:26:29;;;;;;;31.92;7.93;;;;;;;;;;4975895;28;20236;-79
2023/09/10 01:28:55;;;;;;;60.88;14.30;;;;;;;;;;4971138;28;20236;-78
2023/09/10 01:31:22;;;;;;;19.52;4.07;;;;;;;;;;4964039;28;20321;-78
2023/09/10 01:33:52;;;;;;;60.00;15.25;;;;;;;;;;4957324;28;20240;-78
2023/09/10 01:36:40;;;;;;;26.63;6.03;;;;;;;;;;4980048;28;20286;-78
2023/09/10 01:39:07;;;;;;;28.58;5.82;;;;;;;;;;4968854;28;20255;-78
2023/09/10 01:41:35;;;;;;;29.85;6.00;;;;;;;;;;4970944;28;20232;-78
2023/09/10 01:44:02;;;;;;;21.33;5.47;;;;;;;;;;4975055;28;20240;-79
2023/09/10 01:46:29;;;;;;;26.23;5.35;;;;;;;;;;4967999;28;20244;-80
2023/09/10 01:48:56;;;;;;;180.30;39.33;;;;;;;;;;4962143;28;20322;-78
2023/09/10 01:51:23;;;;;;;23.05;5.43;;;;;;;;;;4963968;28;20243;-78
2023/09/10 01:53:49;;;;;;;45.15;11.20;;;;;;;;;;4966663;28;20268;-78
2023/09/10 01:56:16;;;;;;;20.35;4.22;;;;;;;;;;4973544;28;20244;-78
2023/09/10 01:58:42;;;;;;;57.22;12.85;;;;;;;;;;4973314;28;20272;-78
2023/09/10 02:01:09;;;;;;;22.45;4.68;;;;;;;;;;4976548;28;20244;-79
2023/09/10 02:03:36;;;;;;;28.08;5.82;;;;;;;;;;4978434;28;20711;-78
2023/09/10 02:06:03;;;;;;;20.77;4.55;;;;;;;;;;4962633;28;20268;-79
2023/09/10 02:08:30;;;;;;;22.40;4.82;;;;;;;;;;4975256;28;20233;-79
2023/09/10 02:10:56;;;;;;;51.30;11.63;;;;;;;;;;4971364;28;20251;-78
2023/09/10 02:13:23;;;;;;;26.05;5.55;;;;;;;;;;4971407;28;20310;-79
2023/09/10 02:15:50;;;;;;;49.35;12.15;;;;;;;;;;4949804;28;20225;-78
2023/09/10 02:18:17;;;;;;;24.77;6.28;;;;;;;;;;4967899;28;20260;-78
2023/09/10 02:20:43;;;;;;;56.08;12.75;;;;;;;;;;4967736;28;20295;-79
2023/09/10 02:23:10;;;;;;;20.33;4.93;;;;;;;;;;4957528;28;20248;-79
2023/09/10 02:25:36;;;;;;;38.35;8.82;;;;;;;;;;4979841;28;20241;-79
2023/09/10 02:28:05;;;;;;;29.13;6.13;;;;;;;;;;4967633;28;20255;-79
2023/09/10 02:30:32;;;;;;;33.47;7.28;;;;;;;;;;4980074;28;20228;-78
2023/09/10 02:32:58;;;;;;;33.50;7.00;;;;;;;;;;4968545;28;20264;-78
2023/09/10 02:35:25;;;;;;;21.27;4.82;;;;;;;;;;4978328;28;20236;-78
2023/09/10 02:37:52;;;;;;;65.65;14.25;;;;;;;;;;4968705;28;20309;-78
2023/09/10 02:40:18;;;;;;;27.25;6.43;;;;;;;;;;4987490;28;20682;-79
2023/09/10 02:42:45;;;;;;;87.68;17.25;;;;;;;;;;4968778;28;20233;-79
2023/09/10 02:45:12;;;;;;;29.13;5.80;;;;;;;;;;4976764;28;20233;-78
2023/09/10 02:47:38;;;;;;;23.30;6.60;;;;;;;;;;4974777;28;20228;-78
2023/09/10 02:50:05;;;;;;;24.73;5.72;;;;;;;;;;4976223;28;20255;-79
2023/09/10 02:52:32;;;;;;;29.67;6.15;;;;;;;;;;4979547;28;20288;-79
2023/09/10 02:54:59;;;;;;;22.73;5.03;;;;;;;;;;4981027;28;20263;-78
2023/09/10 02:57:26;;;;;;;20.73;5.00;;;;;;;;;;4981367;28;20237;-78
2023/09/10 02:59:52;;;;;;;56.25;13.27;;;;;;;;;;4968638;28;20229;-78
2023/09/10 03:02:19;;;;;;;30.67;6.22;;;;;;;;;;4972551;28;20233;-78
2023/09/10 03:04:45;;;;;;;39.80;9.80;;;;;;;;;;4975270;28;20248;-77
2023/09/10 03:07:12;;;;;;;23.20;6.03;;;;;;;;;;4982831;28;20266;-78
2023/09/10 03:09:38;;;;;;;27.77;6.50;;;;;;;;;;4967528;28;20298;-79
2023/09/10 03:12:41;;;;;;;28.23;5.75;;;;;;;;;;4972874;28;20228;-78
2023/09/10 03:15:07;;;;;;;28.27;5.65;;;;;;;;;;4897802;29;20236;-78
2023/09/10 03:17:34;;;;;;;23.33;5.10;;;;;;;;;;4964775;28;20259;-78
2023/09/10 03:20:01;;;;;;;27.88;6.07;;;;;;;;;;4972362;28;20264;-78
2023/09/10 03:22:27;;;;;;;27.95;5.30;;;;;;;;;;4979587;28;20240;-78
2023/09/10 03:24:54;;;;;;;38.40;9.65;;;;;;;;;;4964315;28;20228;-79
2023/09/10 03:27:20;;;;;;;25.95;5.88;;;;;;;;;;4966086;28;20235;-79
2023/09/10 03:29:47;;;;;;;50.35;11.82;;;;;;;;;;4958003;28;20287;-78
2023/09/10 03:32:14;;;;;;;25.52;5.50;;;;;;;;;;4973786;28;20728;-78
2023/09/10 03:34:44;;;;;;;57.22;13.27;;;;;;;;;;4969117;28;20262;-78
2023/09/10 03:37:11;;;;;;;21.85;5.03;;;;;;;;;;4972199;28;20248;-79
2023/09/10 03:39:37;;;;;;;29.13;5.82;;;;;;;;;;4978155;28;20244;-79
2023/09/10 03:42:04;;;;;;;25.17;5.65;;;;;;;;;;4978654;28;20243;-78
2023/09/10 03:44:31;;;;;;;17.85;4.07;;;;;;;;;;4978770;28;20268;-78
2023/09/10 03:46:57;;;;;;;20.33;4.47;;;;;;;;;;4968249;28;20235;-78
2023/09/10 03:49:24;;;;;;;22.63;4.85;;;;;;;;;;4977097;28;20233;-77
2023/09/10 03:51:51;;;;;;;40.17;9.90;;;;;;;;;;4955745;28;20244;-78
2023/09/10 03:54:17;;;;;;;30.25;5.57;;;;;;;;;;4981881;28;20228;-78
2023/09/10 03:56:44;;;;;;;54.85;13.13;;;;;;;;;;4979974;28;20255;-79
2023/09/10 03:59:10;;;;;;;21.48;4.75;;;;;;;;;;4979183;28;20251;-78
2023/09/10 04:01:38;;;;;;;28.35;6.30;;;;;;;;;;4966379;28;20757;-80
2023/09/10 04:04:05;;;;;;;27.70;6.95;;;;;;;;;;4967059;28;20600;-78
2023/09/10 04:06:31;;;;;;;22.77;4.82;;;;;;;;;;4981945;28;20236;-78
2023/09/10 04:08:59;;;;;;;22.08;5.35;;;;;;;;;;4972969;28;20239;-78
2023/09/10 04:11:25;;;;;;;30.08;6.32;;;;;;;;;;4980659;28;20235;-79
2023/09/10 04:13:52;;;;;;;42.13;10.52;;;;;;;;;;4980728;28;20236;-78
2023/09/10 04:16:19;;;;;;;29.15;5.85;;;;;;;;;;4980497;28;20232;-79
2023/09/10 04:18:45;;;;;;;45.60;10.18;;;;;;;;;;4980872;28;20240;-78
2023/09/10 04:21:13;;;;;;;22.10;4.85;;;;;;;;;;4967563;28;20235;-78
2023/09/10 04:23:40;;;;;;;43.00;10.18;;;;;;;;;;4975687;28;20240;-78
2023/09/10 04:26:06;;;;;;;23.73;4.75;;;;;;;;;;4986050;28;20236;-78
2023/09/10 04:28:33;;;;;;;28.75;6.45;;;;;;;;;;4969535;28;20228;-78
2023/09/10 04:31:00;;;;;;;21.42;5.18;;;;;;;;;;4980915;28;20236;-80
2023/09/10 04:33:26;;;;;;;21.48;4.45;;;;;;;;;;4974179;28;20320;-79
2023/09/10 04:36:01;;;;;;;40.58;10.43;;;;;;;;;;4963212;28;20219;-79
2023/09/10 04:38:27;;;;;;;20.67;5.03;;;;;;;;;;4986251;28;20231;-78
2023/09/10 04:40:55;;;;;;;47.50;11.65;;;;;;;;;;4976238;28;20295;-78
2023/09/10 04:43:22;;;;;;;19.42;4.50;;;;;;;;;;4981000;28;20238;-78
2023/09/10 04:45:48;;;;;;;49.17;11.50;;;;;;;;;;4971709;28;20233;-78
2023/09/10 04:48:17;;;;;;;28.50;6.53;;;;;;;;;;4978522;28;20315;-78
2023/09/10 04:50:44;;;;;;;50.22;11.88;;;;;;;;;;4973295;28;20449;-79
2023/09/10 04:53:14;;;;;;;28.35;6.35;;;;;;;;;;4972942;28;20232;-78
2023/09/10 04:55:41;;;;;;;40.67;9.77;;;;;;;;;;4973567;28;20236;-79
2023/09/10 04:58:08;;;;;;;20.70;4.35;;;;;;;;;;4973374;28;20247;-78
2023/09/10 05:00:38;;;;;;;25.25;5.22;;;;;;;;;;4968469;28;20240;-78
2023/09/10 05:03:05;;;;;;;31.52;6.13;;;;;;;;;;4971864;28;20688;-77
2023/09/10 05:05:31;;;;;;;23.77;5.60;;;;;;;;;;4984324;28;20323;-78
2023/09/10 05:07:58;;;;;;;27.52;5.60;;;;;;;;;;4971444;28;20252;-78
2023/09/10 05:10:25;;;;;;;23.35;5.10;;;;;;;;;;4975067;28;20232;-79
2023/09/10 05:12:53;;;;;;;39.13;10.00;;;;;;;;;;4964714;28;20243;-78
2023/09/10 05:15:22;;;;;;;24.40;5.32;;;;;;;;;;4979551;28;20228;-79
2023/09/10 05:17:48;;;;;;;38.88;9.45;;;;;;;;;;4971086;28;20323;-78
2023/09/10 05:20:15;;;;;;;25.23;5.82;;;;;;;;;;4988475;28;20232;-78
2023/09/10 05:22:42;;;;;;;38.55;9.48;;;;;;;;;;4961579;28;20232;-78
2023/09/10 05:25:09;;;;;;;26.75;5.95;;;;;;;;;;4960518;28;20670;-78
2023/09/10 05:27:37;;;;;;;27.35;6.22;;;;;;;;;;4974943;28;20228;-78
2023/09/10 05:30:05;;;;;;;23.13;5.35;;;;;;;;;;4984678;28;20231;-80
2023/09/10 05:32:31;;;;;;;32.38;6.65;;;;;;;;;;4981516;28;20244;-81
2023/09/10 05:34:58;;;;;;;23.15;4.75;;;;;;;;;;4976909;28;20276;-79
2023/09/10 05:37:25;;;;;;;20.75;4.75;;;;;;;;;;4982301;28;20335;-82
2023/09/10 05:39:51;;;;;;;57.33;13.07;;;;;;;;;;4971066;28;20244;-80
2023/09/10 05:42:18;;;;;;;33.20;7.28;;;;;;;;;;4967800;28;20238;-79
2023/09/10 05:44:45;;;;;;;53.85;12.77;;;;;;;;;;4960983;28;20237;-80
2023/09/10 05:47:11;;;;;;;26.13;5.28;;;;;;;;;;4974054;28;20314;-81
2023/09/10 05:49:38;;;;;;;29.77;7.07;;;;;;;;;;4973924;28;20247;-85
2023/09/10 05:52:05;;;;;;;25.05;5.55;;;;;;;;;;4979687;28;20236;-84
2023/09/10 05:54:31;;;;;;;25.17;5.65;;;;;;;;;;4964153;28;20508;-81
2023/09/10 05:56:58;;;;;;;30.00;6.68;;;;;;;;;;4956878;28;20694;-81
2023/09/10 05:59:24;;;;;;;24.30;5.20;;;;;;;;;;4961004;28;20323;-82
2023/09/10 06:01:52;;;;;;;43.85;10.65;;;;;;;;;;4975322;28;20657;-81
2023/09/10 06:04:19;;;;;;;27.02;5.68;;;;;;;;;;4964507;28;20268;-82
2023/09/10 06:06:46;;;;;;;49.15;11.80;;;;;;;;;;4973494;28;20667;-83
2023/09/10 06:09:13;;;;;;;27.63;5.93;;;;;;;;;;4968969;28;20221;-81
2023/09/10 06:11:39;;;;;;;28.60;6.45;;;;;;;;;;4971257;28;20237;-82
2023/09/10 06:14:06;;;;;;;26.20;5.93;;;;;;;;;;4977538;28;20653;-80
2023/09/10 06:16:33;;;;;;;23.75;5.18;;;;;;;;;;4976784;28;20710;-81
2023/09/10 06:19:00;;;;;;;27.45;6.22;;;;;;;;;;4965921;28;20263;-82
2023/09/10 06:21:26;;;;;;;24.27;6.10;;;;;;;;;;4976276;28;20235;-82
2023/09/10 06:23:53;;;;;;;45.70;10.70;;;;;;;;;;4973187;28;20243;-81
2023/09/10 06:26:19;;;;;;;21.13;5.15;;;;;;;;;;4974484;28;20256;-81
2023/09/10 06:28:46;;;;;;;51.75;13.13;;;;;;;;;;4973132;28;20271;-81
2023/09/10 06:31:13;;;;;;;21.48;5.22;;;;;;;;;;4985406;28;20267;-81
2023/09/10 06:33:40;;;;;;;29.00;6.88;;;;;;;;;;4958994;28;20244;-82
2023/09/10 06:36:06;;;;;;;20.38;4.88;;;;;;;;;;4968109;28;20291;-82
2023/09/10 06:38:33;;;;;;;25.90;7.00;;;;;;;;;;4976018;28;20237;-81
2023/09/10 06:41:00;;;;;;;22.70;5.35;;;;;;;;;;4976944;28;20294;-80
2023/09/10 06:43:26;;;;;;;24.52;5.47;;;;;;;;;;4981735;28;20232;-82
2023/09/10 06:45:54;;;;;;;52.47;11.90;;;;;;;;;;4970843;28;20241;-82
2023/09/10 06:48:21;;;;;;;22.88;5.50;;;;;;;;;;4977087;28;20707;-82
2023/09/10 06:50:47;;;;;;;63.03;14.18;;;;;;;;;;4968793;28;20316;-81
2023/09/10 06:53:14;;;;;;;21.42;4.93;;;;;;;;;;4973458;28;20236;-82
2023/09/10 06:55:40;;;;;;;35.90;9.25;;;;;;;;;;4957529;28;20300;-83
2023/09/10 06:58:07;;;;;;;19.08;4.55;;;;;;;;;;4962436;28;20295;-82
2023/09/10 07:00:34;;;;;;;29.27;8.45;;;;;;;;;;4967271;28;20252;-82
2023/09/10 07:03:05;;;;;;;21.77;6.50;;;;;;;;;;4964203;28;20248;-83
2023/09/10 07:05:32;;;;;;;25.63;6.25;;;;;;;;;;4977195;28;20298;-82
2023/09/10 07:07:59;;;;;;;18.23;4.10;;;;;;;;;;4976607;28;20240;-83
2023/09/10 07:10:26;;;;;;;22.23;5.00;;;;;;;;;;4973886;28;20255;-82
2023/09/10 07:12:52;;;;;;;44.17;11.40;;;;;;;;;;4971635;28;20239;-82
2023/09/10 07:15:19;;;;;;;20.15;5.10;;;;;;;;;;4964294;28;20240;-83
2023/09/10 07:17:45;;;;;;;53.53;14.88;;;;;;;;;;4972974;28;20271;-82
2023/09/10 07:20:12;;;;;;;26.20;7.05;;;;;;;;;;4986052;28;20287;-82
2023/09/10 07:22:39;;;;;;;22.10;6.68;;;;;;;;;;4981680;28;20266;-83
2023/09/10 07:25:05;;;;;;;21.08;5.07;;;;;;;;;;4978950;28;20247;-83
2023/09/10 07:27:32;;;;;;;25.60;6.00;;;;;;;;;;4981308;28;20244;-82
2023/09/10 07:29:59;;;;;;;17.63;5.05;;;;;;;;;;4967801;28;20255;-82
2023/09/10 07:32:25;;;;;;;24.70;6.95;;;;;;;;;;4986617;28;20302;-85
2023/09/10 07:34:52;;;;;;;37.60;10.07;;;;;;;;;;4968907;28;20271;-82
2023/09/10 07:37:19;;;;;;;24.35;6.43;;;;;;;;;;4981063;28;20244;-82
2023/09/10 07:39:45;;;;;;;71.30;16.23;;;;;;;;;;4963920;28;20716;-82
2023/09/10 07:42:12;;;;;;;23.00;6.10;;;;;;;;;;4974338;28;20305;-82
2023/09/10 07:44:40;;;;;;;25.38;6.45;;;;;;;;;;4975198;28;20233;-84
2023/09/10 07:47:08;;;;;;;20.98;4.95;;;;;;;;;;4983732;28;20267;-81
2023/09/10 07:49:35;;;;;;;22.08;5.97;;;;;;;;;;4961888;28;20684;-82
2023/09/10 07:52:04;;;;;;;23.52;5.22;;;;;;;;;;4968760;28;20236;-83
2023/09/10 07:54:31;;;;;;;26.02;6.28;;;;;;;;;;4976712;28;20247;-82
2023/09/10 07:56:57;;;;;;;32.45;8.30;;;;;;;;;;4969025;28;20240;-83
2023/09/10 07:59:24;;;;;;;22.67;5.57;;;;;;;;;;4975830;28;20241;-83
2023/09/10 08:01:51;;;;;;;63.63;12.40;;;;;;;;;;4965108;28;20335;-82
2023/09/10 08:04:17;;;;;;;23.27;5.70;;;;;;;;;;4981279;28;20232;-82
2023/09/10 08:06:44;;;;;;;82.15;16.40;;;;;;;;;;4966502;28;20756;-82
2023/09/10 08:09:10;;;;;;;19.60;5.38;;;;;;;;;;4960157;28;20244;-84
2023/09/10 08:11:37;;;;;;;27.58;6.57;;;;;;;;;;4971682;28;20247;-84
2023/09/10 08:14:04;;;;;;;18.95;4.40;;;;;;;;;;4965884;28;20239;-81
2023/09/10 08:16:30;;;;;;;25.83;6.78;;;;;;;;;;4973299;28;20244;-82
2023/09/10 08:18:57;;;;;;;48.13;12.65;;;;;;;;;;4969206;28;20244;-82
2023/09/10 08:21:23;;;;;;;19.58;4.70;;;;;;;;;;4964196;28;20236;-81
2023/09/10 08:23:50;;;;;;;55.67;14.32;;;;;;;;;;4969026;28;20248;-83
2023/09/10 08:26:17;;;;;;;28.40;7.00;;;;;;;;;;4974412;28;20323;-82
2023/09/10 08:28:44;;;;;;;89.85;16.90;;;;;;;;;;4963740;28;20240;-81
2023/09/10 08:31:11;;;;;;;24.73;5.63;;;;;;;;;;4991175;28;20314;-82
2023/09/10 08:33:37;;;;;;;30.38;7.05;;;;;;;;;;4976450;28;20248;-83
2023/09/10 08:36:04;;;;;;;29.42;7.65;;;;;;;;;;4966973;28;20270;-82
2023/09/10 08:38:31;;;;;;;21.27;5.25;;;;;;;;;;4982777;28;20437;-83
2023/09/10 08:40:58;;;;;;;22.38;5.07;;;;;;;;;;4960513;28;20735;-82
2023/09/10 08:43:31;;;;;;;24.48;5.75;;;;;;;;;;4969227;28;20284;-85
2023/09/10 08:45:57;;;;;;;42.80;9.00;;;;;;;;;;4964494;28;20322;-82
2023/09/10 08:48:26;;;;;;;16.20;4.32;;;;;;;;;;4969697;28;20741;-83
2023/09/10 08:50:53;;;;;;;80.68;15.95;;;;;;;;;;4950708;28;20243;-82
2023/09/10 08:53:20;;;;;;;28.35;6.30;;;;;;;;;;4976275;28;20235;-83
2023/09/10 08:55:47;;;;;;;79.72;15.93;;;;;;;;;;4970382;28;20616;-82
2023/09/10 08:58:14;;;;;;;25.45;6.68;;;;;;;;;;4972133;28;20231;-83
2023/09/10 09:00:42;;;;;;;68.20;13.48;;;;;;;;;;4967948;28;20243;-83
2023/09/10 09:03:09;;;;;;;25.00;5.72;;;;;;;;;;4975673;28;20286;-83
2023/09/10 09:05:37;;;;;;;27.13;6.22;;;;;;;;;;4973411;28;20233;-83
2023/09/10 09:08:14;;;;;;;16.83;4.22;;;;;;;;;;4978251;28;20291;-83
2023/09/10 09:10:41;;;;;;;84.07;71.45;;;;;;;;;;4979753;28;20286;-83
2023/09/10 09:13:09;;;;;;;23.63;6.28;;;;;;;;;;4979357;28;20251;-83
2023/09/10 09:15:37;;;;;;;27.17;6.95;;;;;;;;;;4984511;28;20604;-82
2023/09/10 09:18:06;;;;;;;26.02;6.72;;;;;;;;;;4978048;28;20239;-81
2023/09/10 09:20:34;;;;;;;35.08;8.52;;;;;;;;;;4963723;28;20236;-81
2023/09/10 09:23:12;;;;;;;50.40;45.38;;;;;;;;;;4963728;28;20238;-83
2023/09/10 09:25:39;;;;;;;37.20;14.27;;;;;;;;;;4948888;28;20247;-84
2023/09/10 09:28:06;;;;;;;17.95;5.10;;;;;;;;;;4990461;28;20642;-83
2023/09/10 09:30:36;;;;;;;20.98;5.10;;;;;;;;;;4983612;28;20235;-82
2023/09/10 09:33:04;;;;;;;15.68;4.05;;;;;;;;;;4978191;28;20231;-84
2023/09/10 09:35:34;;;;;;;20.73;5.43;;;;;;;;;;4984646;28;20227;-84
2023/09/10 09:38:09;;;;;;;17.83;4.03;;;;;;;;;;4966833;28;20236;-83
2023/09/10 09:40:36;;;;;;;23.40;6.53;;;;;;;;;;4974505;28;20235;-83
2023/09/10 09:43:08;;;;;;;19.60;5.25;;;;;;;;;;4969406;28;20300;-83
2023/09/10 09:45:45;;;;;;;77.55;14.73;;;;;;;;;;4979551;28;20231;-84
2023/09/10 09:48:12;;;;;;;20.83;5.07;;;;;;;;;;4975574;28;20241;-83
2023/09/10 09:50:39;;;;;;;26.17;6.40;;;;;;;;;;4978177;28;20313;-83
2023/09/10 09:53:07;;;;;;;23.63;5.45;;;;;;;;;;4976949;28;20286;-83
2023/09/10 09:55:34;;;;;;;20.38;4.95;;;;;;;;;;4984072;28;20290;-83
2023/09/10 09:58:03;;;;;;;16.95;4.40;;;;;;;;;;4974077;28;20243;-84
2023/09/10 10:00:32;;;;;;;21.33;5.28;;;;;;;;;;4976441;28;20232;-83
2023/09/10 10:02:59;;;;;;;23.25;5.45;;;;;;;;;;4965610;28;20244;-82
2023/09/10 10:05:26;;;;;;;20.00;6.15;;;;;;;;;;4983902;28;20298;-83
2023/09/10 10:07:53;;;;;;;70.53;13.52;;;;;;;;;;4951514;28;20232;-84
2023/09/10 10:10:20;;;;;;;21.70;5.40;;;;;;;;;;4961791;28;20237;-85
2023/09/10 10:12:48;;;;;;;86.10;35.63;;;;;;;;;;4980800;28;20228;-84
2023/09/10 10:15:16;;;;;;;24.52;5.40;;;;;;;;;;4983332;28;20281;-85
2023/09/10 10:17:43;;;;;;;75.20;15.75;;;;;;;;;;4979109;28;20251;-85
2023/09/10 10:20:10;;;;;;;23.60;5.40;;;;;;;;;;4971958;28;20244;-83
2023/09/10 10:22:37;;;;;;;18.42;4.72;;;;;;;;;;4966172;28;20259;-85
2023/09/10 10:25:05;;;;;;;15.60;3.97;;;;;;;;;;4961420;28;20729;-84
2023/09/10 10:27:34;;;;;;;19.67;4.95;;;;;;;;;;4981676;28;20339;-85
2023/09/10 10:30:04;;;;;;;36.22;27.33;;;;;;;;;;4960300;28;20235;-87
2023/09/10 10:32:36;;;;;;;23.58;9.07;;;;;;;;;;4976521;28;20232;-83
2023/09/10 10:35:05;;;;;;;21.20;5.35;;;;;;;;;;4981202;28;20234;-83
2023/09/10 10:37:35;;;;;;;37.10;25.10;;;;;;;;;;4970004;28;20274;-86
2023/09/10 10:40:05;;;;;;;20.75;4.97;;;;;;;;;;4970738;28;20299;-85
2023/09/10 10:42:35;;;;;;;25.92;6.45;;;;;;;;;;4980451;28;20240;-87
2023/09/10 12:01:31;;;;;;;;;;;;;;;33.11;100.00;99186.44;5063061;27;20009;-80
2023/09/10 12:03:57;;;;;;;;;;;;;;;33.18;100.00;99138.22;5053990;28;19936;-81
2023/09/10 12:06:24;;;;;;;;;;;;;;;32.60;100.00;99051.19;5073722;27;19935;-80
2023/09/10 12:08:51;;;;;;;;;;;;;;;33.84;100.00;99221.75;5054089;28;19925;-81
2023/09/10 12:11:17;;;;;;;;;;;;;;;35.07;100.00;99422.50;5073232;27;19967;-81
2023/09/10 12:13:44;;;;;;;;;;;;;;;33.40;96.82;98962.28;5067084;28;19954;-80
2023/09/10 12:16:12;;;;;;;;;;;;;;;34.32;100.00;99207.38;5059562;28;20058;-82
2023/09/10 12:18:39;;;;;;;;;;;;;;;32.85;97.19;98848.78;5060065;27;20384;-81
2023/09/10 12:21:08;;;;;;;;;;;;;;;32.67;100.00;98884.44;5082160;27;19956;-83
2023/09/10 12:23:34;;;;;;;;;;;;;;;32.67;100.00;98889.91;5059662;27;19932;-81
2023/09/10 12:26:01;;;;;;;;;;;;;;;32.82;100.00;98931.25;5050774;27;19925;-82
2023/09/10 12:28:28;;;;;;;;;;;;;;;32.87;98.68;98866.75;5095215;27;19928;-81
2023/09/10 12:30:55;;;;;;;;;;;;;;;33.60;100.00;99034.13;5067087;27;19928;-82
2023/09/10 12:33:22;;;;;;;;;;;;;;;32.61;99.62;98812.06;5071069;28;20019;-81
2023/09/10 12:35:49;;;;;;;;;;;;;;;33.14;97.97;98867.50;5055560;27;19925;-81
2023/09/10 12:38:18;;;;;;;;;;;;;;;32.74;100.00;98882.75;5073528;28;19942;-81
2023/09/10 12:40:45;;;;;;;;;;;;;;;33.43;100.00;99029.63;5056178;27;19934;-81
2023/09/10 12:43:12;;;;;;;;;;;;;;;33.52;100.00;99036.84;5076135;27;19923;-82
2023/09/10 12:45:39;;;;;;;;;;;;;;;33.65;100.00;98996.09;5066097;28;20037;-87
2023/09/10 12:48:06;;;;;;;;;;;;;;;33.43;95.79;98876.16;5070837;28;19924;-81
2023/09/10 12:50:33;;;;;;;;;;;;;;;32.83;100.00;98856.31;5093509;27;20002;-86
2023/09/10 12:53:00;;;;;;;;;;;;;;;32.67;93.49;98742.97;5053117;27;20432;-81
2023/09/10 12:55:28;;;;;;;;;;;;;;;32.80;99.23;98818.31;5059071;28;19959;-81
2023/09/10 12:57:59;;;;;;;;;;;;;;;34.01;100.00;99020.56;5071923;27;19936;-81
2023/09/10 13:00:27;;;;;;;;;;;;;;;34.13;92.39;98897.63;5094828;27;19966;-81
2023/09/10 13:02:54;;;;;;;;;;;;;;;33.59;91.78;98777.50;5058970;27;19931;-83
2023/09/10 13:05:21;;;;;;;;;;;;;;;32.81;95.94;98726.94;5069808;27;19968;-81
2023/09/10 13:07:48;;;;;;;;;;;;;;;32.96;94.85;98761.69;5067662;27;19924;-82
2023/09/10 13:10:16;;;;;;;;;;;;;;;32.69;95.75;98726.38;5071149;28;20029;-81
2023/09/10 13:12:44;;;;;;;;;;;;;;;32.62;95.55;98703.44;5058474;28;19961;-81
2023/09/10 13:15:11;;;;;;;;;;;;;;;33.69;100.00;98934.41;5055458;28;20467;-81
2023/09/10 13:17:38;;;;;;;0.60;0.60;;;;;;;35.06;95.48;99038.88;5055338;28;20415;-82
2023/09/10 13:20:06;;;;;;;10.88;2.92;;;;;;;34.40;94.97;98886.28;5045993;28;20279;-81
2023/09/10 13:22:33;;;;;;;2.33;1.13;;;;;;;34.41;90.45;98843.22;5054852;28;20265;-85
2023/09/10 13:25:01;;;;;;;2.08;1.15;;;;;;;33.13;87.64;98611.94;5050094;28;20232;-83
2023/09/10 13:27:29;;;;;;;3.20;1.73;;;;;;;33.93;94.18;98825.81;5054263;28;20234;-81
2023/09/10 13:29:56;;;;;;;35.08;8.60;;;;;;;33.79;93.99;98793.56;5059999;28;20225;-82
2023/09/10 13:32:23;;;;;;;8.13;2.92;;;;;;;34.22;93.89;98850.78;5063211;28;20229;-81
2023/09/10 13:34:50;;;;;;;27.98;7.50;;;;;;;33.36;88.07;98643.06;5031571;28;20326;-81
2023/09/10 13:37:17;;;;;;;19.45;5.05;;;;;;;34.01;89.39;98780.03;5050113;28;20237;-81
2023/09/10 13:39:44;;;;;;;9.38;4.85;;;;;;;34.79;94.52;98915.66;5070719;28;20056;-79
2023/09/10 13:42:12;;;;;;;1.60;1.02;;;;;;;34.80;81.86;98783.66;5059048;28;20243;-80
2023/09/10 13:44:39;;;;;;;0.47;0.47;;;;;;;33.97;80.97;98603.16;5055525;28;20240;-80
2023/09/10 13:47:06;;;;;;;0.95;0.95;;;;;;;34.88;89.96;98838.59;5070866;28;20236;-80
2023/09/10 13:49:33;;;;;;;0.70;0.70;;;;;;;34.80;83.87;98741.63;5059204;28;20237;-80
2023/09/10 13:52:00;;;;;;;1.05;0.98;;;;;;;34.62;84.99;98733.66;5060325;28;20256;-80
2023/09/10 13:54:27;;;;;;;0.50;0.50;;;;;;;34.80;83.81;98736.13;5076135;28;20244;-80
2023/09/10 13:56:54;;;;;;;0.43;0.43;;;;;;;34.24;81.60;98637.47;5060914;28;20240;-80
2023/09/10 13:59:21;;;;;;;0.30;0.30;;;;;;;34.60;94.29;98812.63;5045935;28;20260;-80
2023/09/10 14:01:47;;;;;;;1.15;0.75;;;;;;;34.54;79.69;98667.84;5063223;28;20229;-80
2023/09/10 14:04:15;;;;;;;0.93;0.93;;;;;;;34.33;88.05;98710.50;5060978;28;20237;-81
2023/09/10 14:06:42;;;;;;;1.58;0.80;;;;;;;34.60;89.31;98785.16;5041117;28;20253;-80
2023/09/10 14:09:08;;;;;;;0.25;0.25;;;;;;;34.54;83.23;98717.25;5057902;28;20233;-81
2023/09/10 14:11:35;;;;;;;4.30;1.15;;;;;;;33.86;82.09;98592.59;5058969;28;20237;-81
2023/09/10 14:14:02;;;;;;;0.30;0.30;;;;;;;34.91;89.93;98824.50;5050645;28;20234;-81
2023/09/10 14:16:29;;;;;;;0.60;0.60;;;;;;;35.75;83.33;98863.09;5060713;28;20233;-80
2023/09/10 14:18:56;;;;;;;0.15;0.15;;;;;;;35.14;78.60;98722.03;5061774;28;20233;-80
2023/09/10 14:21:23;;;;;;;0.10;0.10;;;;;;;35.32;80.87;98760.22;5038461;28;20240;-81
2023/09/10 14:23:49;;;;;;;0.57;0.57;;;;;;;35.19;85.19;98750.66;5053280;28;20225;-81
2023/09/10 14:26:16;;;;;;;0.68;0.68;;;;;;;35.40;84.35;98795.88;5059533;28;20232;-81
2023/09/10 14:28:43;;;;;;;0.47;0.47;;;;;;;35.33;75.52;98702.31;5051838;28;20327;-81
2023/09/10 14:31:10;;;;;;;0.60;0.60;;;;;;;35.02;80.59;98696.84;5035556;28;20229;-81
2023/09/10 14:33:37;;;;;;;1.05;1.05;;;;;;;35.27;80.83;98747.00;5046045;28;20241;-80
2023/09/10 14:36:04;;;;;;;0.60;0.35;;;;;;;35.18;79.29;98717.88;5054267;28;20240;-80
2023/09/10 14:38:31;;;;;;;0.50;0.50;;;;;;;36.62;80.37;98899.28;5048966;28;20237;-80
2023/09/10 14:40:58;;;;;;;0.82;0.75;;;;;;;35.94;75.81;98735.22;5047261;28;20244;-80
2023/09/10 14:43:25;;;;;;;0.22;0.22;;;;;;;34.71;75.04;98564.25;5061974;28;20232;-80
2023/09/10 14:45:51;;;;;;;1.05;1.05;;;;;;;34.68;74.91;98598.41;5060268;28;20237;-80
2023/09/10 14:48:18;;;;;;;0.63;0.57;;;;;;;33.80;76.03;98499.16;5067713;28;20259;-81
2023/09/10 14:50:45;;;;;;;0.65;0.57;;;;;;;35.39;78.98;98751.03;5047561;28;20240;-81
2023/09/10 14:53:11;;;;;;;0.43;0.40;;;;;;;36.77;80.04;98924.97;5057820;28;20249;-80
2023/09/10 14:55:38;;;;;;;1.20;0.85;;;;;;;35.27;63.36;98517.00;5049219;28;20280;-80
2023/09/10 14:58:05;;;;;;;0.30;0.28;;;;;;;34.20;70.97;98473.41;5053617;28;20241;-80
2023/09/10 15:00:33;;;;;;;0.70;0.63;;;;;;;34.86;74.08;98631.94;5060768;28;20237;-80
2023/09/10 15:02:59;;;;;;;0.55;0.28;;;;;;;35.47;69.30;98651.16;5059352;28;20262;-80
2023/09/10 15:05:26;;;;;;;0.50;0.50;;;;;;;35.22;61.13;98508.50;5051252;28;20698;-81
2023/09/10 15:07:53;;;;;;;0.47;0.47;;;;;;;35.29;59.13;98478.34;5063478;28;20236;-81